Terminal Aerodrome Forecast
Issued by NWS

Home | Current Version | Previous Version | Text Only | Print | Product List | Glossary On
Versions: 1 2 3 4 5 6 7 8 9 10 11 12
000
FTUS45 KABQ 302341
TAFSAF
TAF
KSAF 302341Z 0100/0124 VRB05KT P6SM SCT080
     FM010400 15006KT P6SM SKC
     FM010900 01008KT P6SM SKC
     FM011800 25007KT P6SM FEW080
     FM012200 12011KT P6SM VCTS SCT080CB BKN150=

USA.gov is the U.S. government's official web portal to all federal, state and local government web resources and services.